createdAt,value
2022-12-25T00:00:21.146Z,5.36
2022-12-25T00:03:09.054Z,5.48
2022-12-25T00:05:39.182Z,5.86
2022-12-25T00:08:07.146Z,5.94
2022-12-25T00:10:37.519Z,5.58
2022-12-25T00:13:10.066Z,6.17
2022-12-25T00:15:40.742Z,5.83
2022-12-25T00:18:08.025Z,5.69
2022-12-25T00:20:35.992Z,5.41
2022-12-25T00:23:03.239Z,5.58
2022-12-25T00:25:30.701Z,5.05
2022-12-25T00:27:57.912Z,5.00
2022-12-25T00:30:25.670Z,5.49
2022-12-25T00:32:52.749Z,5.72
2022-12-25T00:35:20.288Z,5.83
2022-12-25T00:37:47.496Z,5.36
2022-12-25T00:40:14.961Z,5.49
2022-12-25T00:42:42.088Z,5.30
2022-12-25T00:45:10.224Z,5.40
2022-12-25T00:47:37.329Z,4.58
2022-12-25T00:50:05.465Z,4.63
2022-12-25T00:52:33.030Z,4.26
2022-12-25T00:55:00.495Z,4.55
2022-12-25T00:57:27.636Z,4.54
2022-12-25T00:59:55.292Z,4.55
2022-12-25T01:02:25.472Z,3.94
2022-12-25T01:04:56.671Z,4.37
2022-12-25T01:07:26.518Z,4.28
2022-12-25T01:10:12.606Z,3.98
2022-12-25T01:12:42.619Z,3.95
2022-12-25T01:15:11.804Z,3.83
2022-12-25T01:17:39.081Z,3.62
2022-12-25T01:20:07.399Z,4.13
2022-12-25T01:22:34.489Z,4.11
2022-12-25T01:25:02.156Z,4.13
2022-12-25T01:27:29.328Z,4.30
2022-12-25T01:29:56.790Z,3.95
2022-12-25T01:32:24.449Z,3.90
2022-12-25T01:34:56.188Z,4.47
2022-12-25T01:37:26.459Z,4.05
2022-12-25T01:39:54.065Z,4.33
2022-12-25T01:42:23.877Z,3.73
2022-12-25T01:44:51.440Z,3.53
2022-12-25T01:47:19.145Z,3.46
2022-12-25T01:49:50.482Z,4.77
2022-12-25T01:52:24.789Z,4.23
2022-12-25T01:54:52.303Z,4.07
2022-12-25T01:57:33.690Z,4.57
2022-12-25T02:00:02.207Z,5.37
2022-12-25T02:02:30.029Z,5.28
2022-12-25T02:05:14.516Z,5.39
2022-12-25T02:07:43.244Z,5.57
2022-12-25T02:10:12.135Z,6.16
2022-12-25T02:12:41.043Z,6.22
2022-12-25T02:15:12.380Z,5.90
2022-12-25T02:18:07.495Z,5.66
2022-12-25T02:20:57.025Z,5.00
2022-12-25T02:23:54.195Z,5.29
2022-12-25T02:26:39.591Z,5.43
2022-12-25T02:29:25.585Z,5.02
2022-12-25T02:32:05.499Z,4.82
2022-12-25T02:34:59.278Z,4.94
2022-12-25T02:37:32.854Z,5.07
2022-12-25T02:40:17.627Z,5.29
2022-12-25T02:43:17.686Z,5.32
2022-12-25T02:46:17.785Z,5.29
2022-12-25T02:49:12.013Z,5.44
2022-12-25T02:52:01.697Z,4.91
2022-12-25T02:54:52.770Z,4.93
2022-12-25T02:57:45.242Z,5.17
2022-12-25T03:00:32.965Z,5.09
2022-12-25T03:03:21.425Z,6.09
2022-12-25T03:06:10.540Z,6.70
2022-12-25T03:08:42.865Z,6.40
2022-12-25T03:11:31.741Z,6.04
2022-12-25T03:14:26.477Z,6.29
2022-12-25T03:16:59.564Z,6.10
2022-12-25T03:19:49.491Z,6.21
2022-12-25T03:22:47.362Z,6.40
2022-12-25T03:25:34.661Z,5.95
2022-12-25T03:28:02.468Z,5.86
2022-12-25T03:31:13.808Z,5.58
2022-12-25T03:34:12.475Z,6.05
2022-12-25T03:37:40.123Z,6.12
2022-12-25T03:40:39.346Z,6.48
2022-12-25T03:43:38.363Z,6.08
2022-12-25T03:46:32.349Z,6.19
2022-12-25T03:49:27.066Z,6.53
2022-12-25T03:52:17.002Z,6.55
2022-12-25T03:55:05.814Z,6.57
2022-12-25T03:57:53.434Z,6.63
2022-12-25T04:00:39.033Z,6.57
2022-12-25T04:03:25.220Z,6.89
2022-12-25T04:06:10.992Z,6.52
2022-12-25T04:08:56.999Z,6.63
2022-12-25T04:11:42.786Z,6.55
2022-12-25T04:14:28.946Z,6.27
2022-12-25T04:17:25.155Z,6.25
2022-12-25T04:20:11.276Z,6.49
2022-12-25T04:23:13.755Z,6.15
2022-12-25T04:26:00.186Z,6.83
2022-12-25T04:28:45.954Z,6.58
2022-12-25T04:31:32.163Z,5.64
2022-12-25T04:34:17.872Z,6.18
2022-12-25T04:36:45.476Z,6.12
2022-12-25T04:39:12.732Z,6.71
2022-12-25T04:41:40.150Z,6.59
2022-12-25T04:44:07.325Z,6.68
2022-12-25T04:46:34.767Z,6.85
2022-12-25T04:49:01.932Z,7.00
2022-12-25T04:51:29.361Z,7.17
2022-12-25T04:53:56.928Z,7.10
2022-12-25T04:56:24.639Z,6.92
2022-12-25T04:58:51.941Z,6.65
2022-12-25T05:05:29.471Z,7.14
2022-12-25T05:07:58.379Z,6.41
2022-12-25T05:10:25.473Z,6.21
2022-12-25T05:12:53.218Z,6.40
2022-12-25T05:15:20.308Z,6.40
2022-12-25T05:17:47.753Z,6.04
2022-12-25T05:20:14.889Z,6.30
2022-12-25T05:22:42.857Z,5.10
2022-12-25T05:25:09.966Z,5.04
2022-12-25T05:27:37.512Z,4.86
2022-12-25T05:30:04.925Z,4.60
2022-12-25T05:32:32.453Z,4.86
2022-12-25T05:35:00.638Z,5.38
2022-12-25T05:37:28.180Z,4.98
2022-12-25T05:39:55.281Z,5.36
2022-12-25T05:42:22.847Z,4.99
2022-12-25T05:44:50.042Z,5.69
2022-12-25T05:47:17.443Z,5.51
2022-12-25T05:49:44.662Z,5.56
2022-12-25T05:52:12.321Z,5.05
2022-12-25T05:54:39.557Z,5.00
2022-12-25T05:57:07.080Z,4.78
2022-12-25T05:59:34.261Z,4.68
2022-12-25T06:02:01.895Z,4.13
2022-12-25T06:04:29.588Z,4.69
2022-12-25T06:06:57.212Z,4.64
2022-12-25T06:09:24.302Z,4.03
2022-12-25T06:11:51.754Z,4.14
2022-12-25T11:16:03.800Z,7.20
2022-12-25T11:18:45.273Z,7.47
2022-12-25T11:21:31.034Z,7.45
2022-12-25T11:24:07.347Z,7.34
2022-12-25T11:26:55.497Z,7.83
2022-12-25T11:29:43.887Z,7.18
2022-12-25T11:32:28.743Z,7.84
2022-12-25T11:34:58.106Z,7.95
2022-12-25T11:37:39.562Z,8.25
2022-12-25T11:40:07.793Z,8.60
2022-12-25T11:42:42.297Z,8.00
2022-12-25T11:45:38.315Z,7.36
2022-12-25T11:48:14.095Z,8.11
2022-12-25T11:50:48.480Z,7.42
2022-12-25T11:53:30.838Z,7.06
2022-12-25T11:56:06.427Z,6.98
2022-12-25T11:58:39.211Z,6.72
2022-12-25T12:01:36.486Z,7.86
2022-12-25T12:04:08.495Z,7.24
2022-12-25T12:06:48.258Z,7.83
2022-12-25T12:09:33.738Z,6.86
2022-12-25T12:12:29.407Z,7.23
2022-12-25T12:15:19.762Z,7.09
2022-12-25T12:17:47.221Z,8.49
2022-12-25T12:20:35.053Z,8.52
2022-12-25T12:23:10.830Z,7.91
2022-12-25T12:25:42.938Z,8.46
2022-12-25T12:28:21.581Z,8.19
2022-12-25T12:31:03.735Z,8.53
2022-12-25T12:33:54.135Z,8.62
2022-12-25T12:36:35.747Z,8.91
2022-12-25T12:39:06.152Z,9.17
2022-12-25T12:41:47.669Z,9.00
2022-12-25T12:44:17.516Z,9.32
2022-12-25T12:46:53.893Z,9.60
2022-12-25T12:49:33.813Z,9.95
2022-12-25T12:52:30.613Z,10.06
2022-12-25T12:55:02.845Z,10.29
2022-12-25T12:57:40.049Z,10.39
2022-12-25T13:00:16.391Z,10.29
2022-12-25T13:03:27.878Z,9.71
2022-12-25T13:06:01.180Z,9.79
2022-12-25T13:08:40.364Z,9.80
2022-12-25T13:11:21.563Z,10.03
2022-12-25T13:13:50.910Z,10.16
2022-12-25T13:16:32.221Z,9.79
2022-12-25T13:19:04.924Z,9.26
2022-12-25T13:21:33.741Z,9.91
2022-12-25T13:24:19.497Z,10.17
2022-12-25T13:26:47.066Z,9.88
2022-12-25T13:29:44.491Z,9.53
2022-12-25T13:32:22.340Z,9.43
2022-12-25T13:34:50.823Z,10.09
2022-12-25T13:37:21.926Z,10.59
2022-12-25T13:39:56.892Z,10.53
2022-12-25T13:42:28.648Z,10.39
2022-12-25T13:44:59.478Z,10.53
2022-12-25T13:47:26.929Z,10.41
2022-12-25T13:49:56.223Z,10.49
2022-12-25T13:52:32.678Z,10.38
2022-12-25T13:55:10.922Z,10.43
2022-12-25T13:57:42.343Z,10.52
2022-12-25T14:00:20.573Z,10.29
2022-12-25T14:02:49.443Z,10.37
2022-12-25T14:05:27.354Z,10.12
2022-12-25T14:07:57.140Z,10.05
2022-12-25T14:10:27.679Z,10.01
2022-12-25T14:12:58.265Z,9.88
2022-12-25T14:15:28.208Z,9.72
2022-12-25T14:17:55.931Z,9.49
2022-12-25T14:20:24.826Z,9.51
2022-12-25T14:22:54.820Z,9.45
2022-12-25T14:25:31.567Z,9.32
2022-12-25T14:28:16.145Z,9.22
2022-12-25T14:30:43.773Z,9.17
2022-12-25T14:33:18.184Z,9.02
2022-12-25T14:35:47.489Z,8.96
2022-12-25T14:38:24.935Z,8.96
2022-12-25T14:41:22.642Z,8.90
2022-12-25T14:43:55.351Z,8.85
2022-12-25T14:46:27.711Z,8.91
2022-12-25T14:49:20.562Z,8.81
2022-12-25T14:51:47.764Z,8.82
2022-12-25T14:54:20.455Z,8.74
2022-12-25T14:56:50.509Z,8.60
2022-12-25T14:59:21.604Z,8.40
2022-12-25T15:01:56.199Z,8.35
2022-12-25T15:04:26.348Z,8.39
2022-12-25T15:06:54.999Z,8.27
2022-12-25T15:09:23.637Z,8.23
2022-12-25T15:11:53.097Z,8.16
2022-12-25T15:14:20.842Z,8.00
2022-12-25T15:16:51.566Z,8.33
2022-12-25T15:19:36.995Z,7.96
2022-12-25T15:22:05.188Z,7.99
2022-12-25T15:24:32.859Z,7.97
2022-12-25T15:27:00.923Z,8.08
2022-12-25T15:32:21.107Z,7.74
2022-12-25T15:34:50.291Z,7.64
2022-12-25T15:37:19.100Z,7.37
2022-12-25T15:39:47.127Z,6.53
2022-12-25T15:42:17.395Z,7.31
2022-12-25T15:44:45.713Z,7.62
2022-12-25T15:47:14.915Z,7.36
2022-12-25T15:49:42.714Z,7.43
2022-12-25T15:52:14.247Z,7.41
2022-12-25T15:54:41.874Z,7.77
2022-12-25T15:57:19.723Z,7.01
2022-12-25T15:59:47.429Z,7.81
2022-12-25T16:02:17.386Z,8.19
2022-12-25T16:04:45.412Z,8.24
2022-12-25T16:07:18.533Z,7.89
2022-12-25T16:09:46.554Z,8.02
2022-12-25T16:12:13.783Z,7.97
2022-12-25T16:14:41.652Z,7.75
2022-12-25T16:17:13.046Z,7.95
2022-12-25T16:19:40.542Z,7.94
2022-12-25T16:22:18.961Z,7.94
2022-12-25T16:24:46.610Z,8.26
2022-12-25T16:27:13.695Z,8.45
2022-12-25T16:29:42.584Z,8.26
2022-12-25T16:32:13.385Z,8.23
2022-12-25T16:34:41.422Z,8.23
2022-12-25T16:37:08.962Z,8.19
2022-12-25T16:39:36.463Z,7.84
2022-12-25T16:42:03.627Z,8.08
2022-12-25T16:44:31.255Z,7.77
2022-12-25T16:46:58.502Z,7.66
2022-12-25T16:49:25.946Z,7.86
2022-12-25T16:51:53.107Z,7.85
2022-12-25T16:54:20.672Z,7.33
2022-12-25T16:56:47.761Z,7.35
2022-12-25T16:59:15.453Z,7.09
2022-12-25T17:04:03.917Z,7.75
2022-12-25T17:06:31.588Z,7.01
2022-12-25T17:09:00.567Z,7.45
2022-12-25T17:11:30.276Z,7.48
2022-12-25T17:14:00.169Z,7.35
2022-12-25T17:16:30.704Z,7.56
2022-12-25T17:19:01.657Z,7.67
2022-12-25T17:21:34.542Z,7.15
2022-12-25T17:24:04.080Z,6.71
2022-12-25T17:26:33.143Z,7.21
2022-12-25T17:29:00.411Z,7.48
2022-12-25T17:31:36.376Z,7.27
2022-12-25T17:34:04.469Z,7.11
2022-12-25T17:36:32.722Z,7.20
2022-12-25T17:39:05.230Z,7.11
2022-12-25T17:41:35.623Z,7.43
2022-12-25T17:44:02.957Z,7.85
2022-12-25T17:46:31.582Z,7.81
2022-12-25T17:49:05.159Z,7.73
2022-12-25T17:51:32.749Z,7.82
2022-12-25T17:54:03.444Z,7.88
2022-12-25T17:56:31.798Z,6.96
2022-12-25T17:59:01.470Z,7.68
2022-12-25T18:01:29.560Z,6.86
2022-12-25T18:03:59.347Z,5.89
2022-12-25T18:06:31.843Z,6.55
2022-12-25T18:08:59.193Z,6.91
2022-12-25T18:11:30.824Z,7.21
2022-12-25T18:14:05.679Z,6.67
2022-12-25T18:16:38.054Z,7.05
2022-12-25T18:19:06.260Z,7.20
2022-12-25T18:21:33.921Z,7.51
2022-12-25T18:24:03.168Z,7.55
2022-12-25T18:26:30.805Z,5.84
2022-12-25T18:28:58.131Z,6.84
2022-12-25T18:31:27.758Z,7.06
2022-12-25T18:33:55.045Z,6.71
2022-12-25T18:36:26.075Z,7.56
2022-12-25T18:38:54.662Z,7.79
2022-12-25T18:41:23.334Z,7.85
2022-12-25T18:43:52.878Z,7.87
2022-12-25T18:46:26.968Z,6.74
2022-12-25T18:48:56.249Z,7.38
2022-12-25T18:51:24.118Z,7.65
2022-12-25T18:53:51.759Z,6.42
2022-12-25T18:56:19.748Z,6.68
2022-12-25T18:58:47.861Z,6.71
2022-12-25T19:01:22.209Z,7.17
2022-12-25T19:03:57.217Z,5.44
2022-12-25T19:06:30.058Z,6.27
2022-12-25T19:08:58.079Z,6.05
2022-12-25T19:11:25.618Z,6.98
2022-12-25T19:13:52.865Z,7.24
2022-12-25T19:16:20.711Z,7.23
2022-12-25T19:18:47.838Z,6.95
2022-12-25T19:21:16.246Z,6.00
2022-12-25T19:23:44.546Z,6.02
2022-12-25T19:26:12.512Z,6.77
2022-12-25T19:28:40.737Z,6.95
2022-12-25T19:31:09.552Z,4.45
2022-12-25T19:33:39.076Z,3.72
2022-12-25T19:36:10.831Z,3.63
2022-12-25T19:38:38.280Z,4.23
2022-12-25T19:41:10.593Z,5.30
2022-12-25T19:43:39.735Z,5.91
2022-12-25T19:46:10.781Z,6.44
2022-12-25T19:48:38.169Z,6.16
2022-12-25T19:51:15.207Z,6.97
2022-12-25T19:53:42.608Z,7.23
2022-12-25T19:56:10.155Z,6.17
2022-12-25T19:58:37.362Z,5.95
2022-12-25T20:01:07.932Z,7.10
2022-12-25T20:03:43.584Z,7.11
2022-12-25T20:06:26.290Z,5.06
2022-12-25T20:08:59.826Z,2.43
2022-12-25T20:11:29.816Z,4.26
2022-12-25T20:13:57.861Z,5.48
2022-12-25T20:16:26.053Z,5.05
2022-12-25T20:18:53.553Z,5.87
2022-12-25T20:21:23.222Z,6.05
2022-12-25T20:23:52.355Z,3.93
2022-12-25T20:26:23.975Z,4.69
2022-12-25T20:28:52.239Z,5.08
2022-12-25T20:31:21.201Z,6.12
2022-12-25T20:33:49.583Z,6.15
2022-12-25T20:36:19.128Z,6.33
2022-12-25T20:38:46.294Z,5.94
2022-12-25T20:41:31.933Z,4.76
2022-12-25T20:44:00.252Z,4.77
2022-12-25T20:46:31.087Z,4.94
2022-12-25T20:48:58.861Z,5.12
2022-12-25T20:51:27.263Z,5.32
2022-12-25T20:53:55.655Z,5.23
2022-12-25T20:56:26.267Z,3.83
2022-12-25T20:58:55.834Z,4.54
2022-12-25T21:01:24.620Z,5.01
2022-12-25T21:03:52.011Z,3.78
2022-12-25T23:10:42.189Z,1.57
2022-12-25T23:13:28.010Z,2.00
2022-12-25T23:15:55.558Z,2.86
2022-12-25T23:18:41.834Z,3.42
2022-12-25T23:21:32.125Z,3.86
2022-12-25T23:24:18.391Z,3.52
2022-12-25T23:26:45.707Z,1.57
2022-12-25T23:29:31.571Z,1.85
2022-12-25T23:31:58.954Z,0.94
2022-12-25T23:34:34.541Z,-0.22
2022-12-25T23:37:01.948Z,0.67
2022-12-25T23:39:29.526Z,0.11
2022-12-25T23:41:56.778Z,-0.21
2022-12-25T23:44:24.703Z,1.16
2022-12-25T23:46:53.664Z,1.35
2022-12-25T23:49:23.039Z,-0.38
2022-12-25T23:51:50.662Z,1.02
2022-12-25T23:54:22.367Z,1.37
2022-12-25T23:56:50.235Z,-1.72
2022-12-25T23:59:18.324Z,0.73
